createdAt,value
2023-03-20T00:00:51.489Z,100262.66
2023-03-20T00:03:20.765Z,100258.41
2023-03-20T00:05:49.477Z,100253.55
2023-03-20T00:08:17.915Z,100255.04
2023-03-20T00:10:47.146Z,100254.46
2023-03-20T00:13:24.407Z,100251.73
2023-03-20T00:15:52.763Z,100250.73
2023-03-20T00:18:25.121Z,100251.71
2023-03-20T00:20:54.176Z,100254.91
2023-03-20T00:23:22.815Z,100258.36
2023-03-20T00:25:52.174Z,100258.77
2023-03-20T00:28:44.195Z,100256.25
2023-03-20T00:31:18.112Z,100254.56
2023-03-20T00:33:46.703Z,100249.69
2023-03-20T00:36:14.885Z,100250.31
2023-03-20T00:38:42.998Z,100248.70
2023-03-20T00:41:28.963Z,100251.86
2023-03-20T00:44:01.144Z,100243.02
2023-03-20T00:46:35.972Z,100248.07
2023-03-20T00:49:04.285Z,100243.89
2023-03-20T00:51:32.509Z,100242.57
2023-03-20T00:54:01.063Z,100243.30
2023-03-20T00:56:29.757Z,100235.41
2023-03-20T00:58:59.233Z,100234.40
2023-03-20T01:01:28.459Z,100233.33
2023-03-20T01:03:56.879Z,100229.52
2023-03-20T01:06:26.044Z,100232.23
2023-03-20T01:08:57.795Z,100233.36
2023-03-20T01:11:27.896Z,100232.56
2023-03-20T01:13:56.227Z,100232.48
2023-03-20T01:16:26.344Z,100230.02
2023-03-20T01:18:55.500Z,100226.66
2023-03-20T01:21:24.076Z,100229.42
2023-03-20T01:23:52.327Z,100227.05
2023-03-20T01:26:40.873Z,100227.91
2023-03-20T01:29:30.484Z,100229.58
2023-03-20T01:31:59.004Z,100227.07
2023-03-20T01:34:27.949Z,100222.29
2023-03-20T01:36:59.220Z,100226.09
2023-03-20T01:39:33.509Z,100228.64
2023-03-20T01:42:03.457Z,100224.02
2023-03-20T01:44:34.654Z,100225.60
2023-03-20T01:47:11.748Z,100221.67
2023-03-20T01:50:14.147Z,100224.21
2023-03-20T01:52:42.970Z,100223.91
2023-03-20T01:55:11.384Z,100220.42
2023-03-20T01:57:40.026Z,100219.04
2023-03-20T02:00:11.909Z,100215.93
2023-03-20T02:02:48.248Z,100213.58
2023-03-20T02:05:46.265Z,100210.95
2023-03-20T02:08:31.657Z,100212.41
2023-03-20T02:11:04.422Z,100211.36
2023-03-20T02:13:33.116Z,100205.96
2023-03-20T02:16:14.794Z,100207.77
2023-03-20T02:18:56.785Z,100206.94
2023-03-20T02:22:09.433Z,100200.82
2023-03-20T02:24:56.947Z,100199.45
2023-03-20T02:27:35.128Z,100203.21
2023-03-20T02:30:12.713Z,100199.34
2023-03-20T02:36:41.456Z,100194.94
2023-03-20T02:39:30.269Z,100190.53
2023-03-20T02:42:15.433Z,100192.08
2023-03-20T02:44:51.116Z,100193.58
2023-03-20T02:47:26.779Z,100188.30
2023-03-20T02:50:11.732Z,100187.79
2023-03-20T02:52:58.350Z,100187.91
2023-03-20T02:55:33.997Z,100189.95
2023-03-20T02:58:21.495Z,100190.48
2023-03-20T03:01:14.338Z,100190.12
2023-03-20T03:04:14.612Z,100196.06
2023-03-20T03:06:46.188Z,100196.52
2023-03-20T03:09:25.889Z,100195.64
2023-03-20T03:11:59.306Z,100193.89
2023-03-20T03:14:46.318Z,100191.45
2023-03-20T03:17:19.778Z,100192.45
2023-03-20T03:19:52.906Z,100192.91
2023-03-20T03:22:21.542Z,100193.23
2023-03-20T03:24:52.874Z,100193.45
2023-03-20T03:28:10.091Z,100189.52
2023-03-20T03:30:39.908Z,100187.95
2023-03-20T03:33:25.477Z,100186.34
2023-03-20T03:36:06.963Z,100184.94
2023-03-20T03:39:00.873Z,100185.02
2023-03-20T03:41:37.724Z,100183.11
2023-03-20T03:44:06.790Z,100179.18
2023-03-20T03:46:44.678Z,100177.30
2023-03-20T03:49:17.428Z,100173.48
2023-03-20T03:51:50.399Z,100171.46
2023-03-20T03:54:23.236Z,100170.67
2023-03-20T03:57:22.873Z,100167.23
2023-03-20T03:59:52.476Z,100170.73
2023-03-20T04:05:33.250Z,100173.77
2023-03-20T04:08:02.883Z,100171.60
2023-03-20T04:10:31.250Z,100171.48
2023-03-20T04:12:59.626Z,100174.48
2023-03-20T04:15:28.034Z,100171.56
2023-03-20T04:17:57.311Z,100168.08
2023-03-20T04:20:25.480Z,100168.48
2023-03-20T04:22:53.736Z,100165.95
2023-03-20T04:25:24.859Z,100166.61
2023-03-20T04:27:55.965Z,100169.14
2023-03-20T04:34:36.610Z,100172.02
2023-03-20T04:37:23.285Z,100171.11
2023-03-20T04:40:00.291Z,100169.56
2023-03-20T04:42:28.519Z,100171.41
2023-03-20T04:45:03.998Z,100168.11
2023-03-20T04:47:32.436Z,100173.64
2023-03-20T04:50:00.725Z,100171.73
2023-03-20T04:52:29.461Z,100170.39
2023-03-20T04:54:57.581Z,100175.45
2023-03-20T04:57:26.323Z,100175.36
2023-03-20T04:59:55.062Z,100181.81
2023-03-20T05:02:23.754Z,100184.12
2023-03-20T05:04:51.911Z,100187.33
2023-03-20T05:07:20.376Z,100183.02
2023-03-20T05:10:02.239Z,100184.48
2023-03-20T05:12:32.988Z,100183.11
2023-03-20T05:15:24.448Z,100183.65
2023-03-20T05:18:11.421Z,100187.45
2023-03-20T05:21:09.073Z,100181.91
2023-03-20T05:23:59.951Z,100186.89
2023-03-20T05:26:30.957Z,100186.90
2023-03-20T05:29:17.477Z,100189.17
2023-03-20T05:32:04.146Z,100188.84
2023-03-20T05:34:52.244Z,100191.58
2023-03-20T05:37:25.601Z,100189.55
2023-03-20T05:39:56.396Z,100192.01
2023-03-20T05:42:36.292Z,100190.27
2023-03-20T05:45:12.904Z,100184.90
2023-03-20T05:48:04.344Z,100182.39
2023-03-20T05:50:41.434Z,100178.01
2023-03-20T05:53:21.453Z,100174.52
2023-03-20T05:56:09.836Z,100174.50
2023-03-20T05:58:40.847Z,100175.05
2023-03-20T06:01:30.712Z,100180.42
2023-03-20T06:04:17.384Z,100180.52
2023-03-20T06:06:57.066Z,100178.69
2023-03-20T06:09:25.655Z,100176.45
2023-03-20T06:11:54.899Z,100173.74
2023-03-20T06:14:23.213Z,100174.23
2023-03-20T06:16:57.388Z,100177.29
2023-03-20T06:19:26.465Z,100182.48
2023-03-20T06:21:54.777Z,100180.25
2023-03-20T06:24:23.355Z,100180.83
2023-03-20T06:26:51.917Z,100177.76
2023-03-20T06:29:20.774Z,100181.38
2023-03-20T06:31:49.708Z,100184.77
2023-03-20T06:34:24.559Z,100184.63
2023-03-20T06:36:52.696Z,100184.44
2023-03-20T06:39:23.038Z,100181.61
2023-03-20T06:41:51.153Z,100182.67
2023-03-20T06:44:19.982Z,100181.99
2023-03-20T06:47:26.268Z,100181.98
2023-03-20T06:49:54.399Z,100178.05
2023-03-20T06:52:22.838Z,100176.98
2023-03-20T06:55:03.991Z,100175.54
2023-03-20T06:57:32.453Z,100174.40
2023-03-20T07:00:17.149Z,100171.52
2023-03-20T07:02:45.851Z,100178.64
2023-03-20T07:05:16.226Z,100178.71
2023-03-20T07:07:44.685Z,100178.33
2023-03-20T07:10:12.888Z,100169.55
2023-03-20T07:12:44.205Z,100172.48
2023-03-20T07:15:12.548Z,100174.51
2023-03-20T07:17:40.959Z,100175.96
2023-03-20T07:20:10.359Z,100170.48
2023-03-20T07:22:39.843Z,100170.42
2023-03-20T07:25:39.400Z,100171.05
2023-03-20T07:28:10.086Z,100167.87
2023-03-20T07:30:39.822Z,100165.75
2023-03-20T07:33:09.596Z,100166.14
2023-03-20T07:35:39.707Z,100166.76
2023-03-20T07:38:08.631Z,100172.98
2023-03-20T07:40:43.992Z,100171.35
2023-03-20T07:43:17.258Z,100169.27
2023-03-20T07:46:07.967Z,100173.46
2023-03-20T07:48:36.380Z,100174.46
2023-03-20T07:51:05.024Z,100174.38
2023-03-20T07:53:33.314Z,100170.59
2023-03-20T07:56:01.475Z,100175.17
2023-03-20T07:58:29.494Z,100177.30
2023-03-20T08:00:58.880Z,100177.89
2023-03-20T08:03:27.265Z,100174.98
2023-03-20T08:05:55.926Z,100172.05
2023-03-20T08:08:24.274Z,100173.55
2023-03-20T08:10:52.320Z,100170.27
2023-03-20T08:13:20.704Z,100171.34
2023-03-20T08:15:48.696Z,100171.02
2023-03-20T08:18:16.769Z,100167.15
2023-03-20T08:20:44.731Z,100167.23
2023-03-20T08:23:12.687Z,100168.50
2023-03-20T08:25:40.595Z,100172.56
2023-03-20T08:28:08.581Z,100168.27
2023-03-20T08:30:37.070Z,100169.04
2023-03-20T08:33:05.078Z,100167.64
2023-03-20T08:35:34.648Z,100168.30
2023-03-20T08:38:03.088Z,100170.84
2023-03-20T08:40:31.546Z,100170.81
2023-03-20T08:42:59.559Z,100174.42
2023-03-20T08:45:27.535Z,100173.15
2023-03-20T08:47:55.908Z,100173.29
2023-03-20T08:50:23.996Z,100176.96
2023-03-20T08:52:52.108Z,100175.37
2023-03-20T08:55:20.234Z,100179.00
2023-03-20T08:57:48.213Z,100180.92
2023-03-20T09:00:16.557Z,100180.34
2023-03-20T09:02:44.758Z,100178.54
2023-03-20T09:05:13.140Z,100180.48
2023-03-20T09:07:41.168Z,100184.54
2023-03-20T09:10:10.456Z,100182.56
2023-03-20T09:12:38.730Z,100180.52
2023-03-20T09:15:07.300Z,100181.27
2023-03-20T09:17:38.613Z,100180.19
2023-03-20T09:20:10.592Z,100180.41
2023-03-20T09:22:41.278Z,100180.42
2023-03-20T09:25:09.901Z,100180.83
2023-03-20T09:27:39.099Z,100182.67
2023-03-20T09:30:08.268Z,100177.60
2023-03-20T09:32:36.881Z,100176.55
2023-03-20T09:35:06.308Z,100171.05
2023-03-20T09:37:34.314Z,100166.41
2023-03-20T09:40:03.014Z,100165.48
2023-03-20T09:42:46.781Z,100160.80
2023-03-20T09:45:34.926Z,100170.13
2023-03-20T09:48:20.314Z,100166.09
2023-03-20T09:51:01.395Z,100173.33
2023-03-20T09:53:38.221Z,100170.77
2023-03-20T09:56:15.756Z,100168.20
2023-03-20T09:58:51.867Z,100165.51
2023-03-20T10:01:22.774Z,100165.46
2023-03-20T10:03:56.251Z,100162.83
2023-03-20T10:06:24.287Z,100163.54
2023-03-20T10:08:52.866Z,100166.16
2023-03-20T10:11:43.184Z,100161.27
2023-03-20T10:14:16.673Z,100165.39
2023-03-20T10:17:06.416Z,100172.27
2023-03-20T10:19:45.514Z,100173.89
2023-03-20T10:22:36.951Z,100172.79
2023-03-20T10:25:43.271Z,100172.62
2023-03-20T10:28:18.289Z,100171.45
2023-03-20T10:30:56.691Z,100172.58
2023-03-20T10:33:30.864Z,100174.59
2023-03-20T10:36:08.386Z,100168.02
2023-03-20T10:38:41.180Z,100163.83
2023-03-20T10:41:15.301Z,100162.30
2023-03-20T10:43:46.293Z,100163.55
2023-03-20T10:46:38.648Z,100166.06
2023-03-20T10:49:12.144Z,100162.94
2023-03-20T10:51:56.802Z,100158.61
2023-03-20T10:54:40.644Z,100160.62
2023-03-20T10:57:18.377Z,100160.69
2023-03-20T10:59:50.372Z,100161.39
2023-03-20T11:04:35.519Z,100156.24
2023-03-20T11:07:37.152Z,100162.97
2023-03-20T11:10:05.198Z,100159.98
2023-03-20T11:12:39.576Z,100160.40
2023-03-20T11:15:25.040Z,100158.86
2023-03-20T11:17:57.348Z,100159.15
2023-03-20T11:20:27.323Z,100157.69
2023-03-20T11:23:02.812Z,100160.86
2023-03-20T11:25:34.944Z,100157.15
2023-03-20T11:28:38.325Z,100151.52
2023-03-20T11:31:25.709Z,100151.70
2023-03-20T11:34:07.108Z,100147.91
2023-03-20T11:36:37.675Z,100148.49
2023-03-20T11:39:13.252Z,100143.34
2023-03-20T11:41:52.227Z,100144.00
2023-03-20T11:44:24.666Z,100145.95
2023-03-20T11:46:58.095Z,100140.92
2023-03-20T11:49:27.939Z,100143.15
2023-03-20T11:52:20.600Z,100143.45
2023-03-20T11:54:52.203Z,100143.35
2023-03-20T11:57:37.364Z,100143.40
2023-03-20T12:00:11.530Z,100142.20
2023-03-20T12:02:43.635Z,100146.91
2023-03-20T12:05:39.947Z,100138.29
2023-03-20T12:08:22.973Z,100133.47
2023-03-20T12:10:57.765Z,100136.34
2023-03-20T12:13:31.556Z,100134.43
2023-03-20T12:16:07.670Z,100133.14
2023-03-20T12:18:47.007Z,100131.12
2023-03-20T12:21:15.004Z,100130.96
2023-03-20T12:23:51.566Z,100130.15
2023-03-20T12:26:27.126Z,100133.23
2023-03-20T12:29:26.721Z,100131.08
2023-03-20T12:32:11.203Z,100129.84
2023-03-20T12:34:52.352Z,100128.97
2023-03-20T12:37:22.741Z,100130.69
2023-03-20T12:39:56.967Z,100127.85
2023-03-20T12:42:52.352Z,100122.58
2023-03-20T12:45:29.787Z,100123.95
2023-03-20T12:48:24.102Z,100116.95
2023-03-20T12:51:05.951Z,100118.52
2023-03-20T12:54:02.837Z,100115.92
2023-03-20T12:56:50.667Z,100119.14
2023-03-20T12:59:45.604Z,100121.71
2023-03-20T13:02:16.632Z,100124.06
2023-03-20T13:05:23.885Z,100119.56
2023-03-20T13:08:17.266Z,100121.33
2023-03-20T13:10:56.143Z,100122.52
2023-03-20T13:13:30.352Z,100111.70
2023-03-20T13:16:39.110Z,100110.45
2023-03-20T13:19:18.905Z,100107.02
2023-03-20T13:22:19.971Z,100103.52
2023-03-20T13:24:53.672Z,100101.94
2023-03-20T13:27:37.469Z,100101.27
2023-03-20T13:30:41.210Z,100101.70
2023-03-20T13:33:24.540Z,100102.34
2023-03-20T13:35:55.580Z,100100.70
2023-03-20T13:38:28.689Z,100100.92
2023-03-20T13:41:03.566Z,100102.26
2023-03-20T13:43:36.401Z,100099.88
2023-03-20T13:46:12.338Z,100096.84
2023-03-20T13:48:43.225Z,100095.89
2023-03-20T13:51:27.135Z,100092.60
2023-03-20T13:54:01.586Z,100094.52
2023-03-20T13:56:32.682Z,100093.13
2023-03-20T13:59:42.583Z,100091.48
2023-03-20T14:02:22.588Z,100093.85
2023-03-20T14:05:01.751Z,100090.31
2023-03-20T14:07:31.451Z,100092.85
2023-03-20T14:10:22.297Z,100093.77
2023-03-20T14:12:54.636Z,100094.02
2023-03-20T14:15:32.590Z,100096.54
2023-03-20T14:18:08.003Z,100094.76
2023-03-20T14:20:40.492Z,100097.60
2023-03-20T14:23:18.703Z,100098.91
2023-03-20T14:25:48.240Z,100099.36
2023-03-20T14:28:16.237Z,100102.13
2023-03-20T14:30:50.837Z,100095.61
2023-03-20T14:33:21.078Z,100099.99
2023-03-20T14:36:11.310Z,100100.39
2023-03-20T14:39:03.019Z,100101.16
2023-03-20T14:41:55.551Z,100105.58
2023-03-20T14:44:26.665Z,100104.79
2023-03-20T14:47:07.018Z,100106.92
2023-03-20T14:49:53.640Z,100103.04
2023-03-20T14:52:41.331Z,100107.91
2023-03-20T14:55:25.700Z,100107.53
2023-03-20T14:58:35.072Z,100108.02
2023-03-20T15:01:06.064Z,100105.15
2023-03-20T15:03:36.595Z,100104.73
2023-03-20T15:06:07.366Z,100108.29
2023-03-20T15:08:42.911Z,100101.54
2023-03-20T15:11:14.648Z,100106.12
2023-03-20T15:13:44.125Z,100103.70
2023-03-20T15:16:15.363Z,100105.27
2023-03-20T15:18:50.977Z,100103.67
2023-03-20T15:21:23.690Z,100103.94
2023-03-20T15:23:51.779Z,100103.37
2023-03-20T15:26:22.236Z,100106.52
2023-03-20T15:29:00.397Z,100103.81
2023-03-20T15:31:34.928Z,100106.02
2023-03-20T15:34:08.289Z,100108.40
2023-03-20T15:36:39.928Z,100108.71
2023-03-20T15:39:17.820Z,100110.04
2023-03-20T15:41:52.063Z,100112.02
2023-03-20T15:44:48.300Z,100113.67
2023-03-20T15:47:22.178Z,100115.52
2023-03-20T15:49:58.293Z,100118.38
2023-03-20T15:52:39.431Z,100118.27
2023-03-20T15:55:19.993Z,100120.77
2023-03-20T15:57:50.564Z,100123.48
2023-03-20T16:00:24.813Z,100127.53
2023-03-20T16:02:53.840Z,100129.85
2023-03-20T16:05:26.404Z,100129.23
2023-03-20T16:07:55.415Z,100125.10
2023-03-20T16:10:36.584Z,100122.73
2023-03-20T16:13:07.701Z,100116.38
2023-03-20T16:15:35.927Z,100112.09
2023-03-20T16:18:07.095Z,100109.67
2023-03-20T16:20:45.368Z,100114.05
2023-03-20T16:23:29.508Z,100110.80
2023-03-20T16:25:59.830Z,100115.77
2023-03-20T16:28:29.085Z,100111.00
2023-03-20T16:31:10.962Z,100110.71
2023-03-20T16:33:40.132Z,100105.76
2023-03-20T16:36:08.766Z,100105.77
2023-03-20T16:38:37.940Z,100106.14
2023-03-20T16:41:22.307Z,100108.42
2023-03-20T16:43:51.559Z,100104.99
2023-03-20T16:46:27.930Z,100107.44
2023-03-20T16:49:39.785Z,100103.48
2023-03-20T16:52:13.537Z,100111.83
2023-03-20T16:54:42.277Z,100119.83
2023-03-20T16:57:17.417Z,100116.58
2023-03-20T16:59:46.757Z,100120.40
2023-03-20T17:02:26.109Z,100123.01
2023-03-20T17:05:01.617Z,100123.38
2023-03-20T17:07:31.486Z,100130.13
2023-03-20T17:10:12.685Z,100135.14
2023-03-20T17:12:42.151Z,100132.39
2023-03-20T17:15:17.181Z,100133.80
2023-03-20T17:17:45.692Z,100133.11
2023-03-20T17:20:19.389Z,100133.27
2023-03-20T17:22:48.175Z,100130.52
2023-03-20T17:25:16.486Z,100128.44
2023-03-20T17:27:45.729Z,100134.27
2023-03-20T17:30:19.748Z,100132.20
2023-03-20T17:32:48.399Z,100130.98
2023-03-20T17:35:17.811Z,100126.30
2023-03-20T17:37:46.213Z,100125.09
2023-03-20T17:40:23.144Z,100120.60
2023-03-20T17:42:51.446Z,100124.38
2023-03-20T17:45:21.148Z,100124.89
2023-03-20T17:47:49.556Z,100127.11
2023-03-20T17:50:27.582Z,100125.20
2023-03-20T17:52:56.141Z,100121.90
2023-03-20T17:55:24.523Z,100125.14
2023-03-20T17:57:52.625Z,100122.33
2023-03-20T18:00:23.968Z,100129.52
2023-03-20T18:02:52.397Z,100126.88
2023-03-20T18:05:20.842Z,100129.56
2023-03-20T18:07:49.280Z,100133.30
2023-03-20T18:10:28.878Z,100131.02
2023-03-20T18:12:57.460Z,100132.83
2023-03-20T18:15:26.147Z,100132.71
2023-03-20T18:17:54.549Z,100134.61
2023-03-20T18:20:25.333Z,100140.58
2023-03-20T18:22:53.438Z,100137.26
2023-03-20T18:25:23.084Z,100137.57
2023-03-20T18:27:51.184Z,100139.58
2023-03-20T18:30:23.063Z,100142.50
2023-03-20T18:32:51.444Z,100146.30
2023-03-20T18:35:19.721Z,100144.22
2023-03-20T18:37:47.951Z,100147.67
2023-03-20T18:40:28.864Z,100143.77
2023-03-20T18:42:58.482Z,100139.92
2023-03-20T18:45:28.522Z,100132.45
2023-03-20T18:47:58.891Z,100138.76
2023-03-20T18:50:38.738Z,100138.13
2023-03-20T18:53:07.849Z,100138.70
2023-03-20T18:55:38.301Z,100136.71
2023-03-20T18:58:06.636Z,100136.45
2023-03-20T19:04:37.626Z,100135.96
2023-03-20T19:07:06.163Z,100138.59
2023-03-20T19:09:34.532Z,100132.23
2023-03-20T19:12:02.694Z,100135.89
2023-03-20T19:14:30.955Z,100133.31
2023-03-20T19:16:59.087Z,100126.06
2023-03-20T19:19:27.099Z,100127.79
2023-03-20T19:21:55.141Z,100127.08
2023-03-20T19:24:23.496Z,100127.95
2023-03-20T19:26:57.267Z,100126.71
2023-03-20T19:29:25.346Z,100128.77
2023-03-20T19:31:53.342Z,100133.24
2023-03-20T19:35:00.755Z,100136.50
2023-03-20T19:37:12.408Z,100136.30
2023-03-20T19:39:40.607Z,100138.35
2023-03-20T19:42:30.303Z,100137.12
2023-03-20T19:44:57.449Z,100135.05
2023-03-20T19:47:26.454Z,100138.16
2023-03-20T19:49:54.533Z,100137.15
2023-03-20T19:52:30.842Z,100132.85
2023-03-20T19:55:03.222Z,100129.42
2023-03-20T19:57:32.384Z,100128.41
2023-03-20T20:00:50.657Z,100125.67
2023-03-20T20:02:49.164Z,100129.33
2023-03-20T20:05:26.886Z,100134.34
2023-03-20T20:08:22.445Z,100142.48
2023-03-20T20:10:50.386Z,100146.13
2023-03-20T20:13:29.482Z,100141.67
2023-03-20T20:16:00.530Z,100141.70
2023-03-20T20:18:29.558Z,100144.13
2023-03-20T20:23:46.272Z,100148.66
2023-03-20T20:26:14.430Z,100145.04
2023-03-20T20:28:42.537Z,100147.29
2023-03-20T20:31:10.844Z,100149.02
2023-03-20T20:33:39.719Z,100148.67
2023-03-20T20:36:57.563Z,100146.08
2023-03-20T20:39:00.619Z,100143.84
2023-03-20T20:41:29.556Z,100152.13
2023-03-20T20:44:15.211Z,100154.04
2023-03-20T20:46:44.304Z,100159.73
2023-03-20T20:49:19.104Z,100158.35
2023-03-20T20:51:48.837Z,100159.90
2023-03-20T20:54:17.273Z,100158.86
2023-03-20T20:56:45.400Z,100159.90
2023-03-20T20:59:13.476Z,100158.67
2023-03-20T21:01:42.033Z,100157.63
2023-03-20T21:04:11.718Z,100160.38
2023-03-20T21:07:08.646Z,100164.17
2023-03-20T21:09:28.927Z,100159.67
2023-03-20T21:11:57.050Z,100161.40
2023-03-20T21:14:25.401Z,100161.57
2023-03-20T21:16:57.388Z,100163.98
2023-03-20T21:19:25.658Z,100158.61
2023-03-20T21:21:53.916Z,100158.27
2023-03-20T21:24:32.067Z,100162.42
2023-03-20T21:27:03.941Z,100161.55
2023-03-20T21:29:32.084Z,100162.39
2023-03-20T21:32:00.662Z,100160.84
2023-03-20T21:34:29.220Z,100161.35
2023-03-20T21:37:00.202Z,100166.02
2023-03-20T21:39:30.951Z,100164.45
2023-03-20T21:41:59.924Z,100162.86
2023-03-20T21:48:06.493Z,100160.60
2023-03-20T21:53:31.897Z,100159.70
2023-03-20T22:05:02.205Z,100159.81
2023-03-20T22:13:38.719Z,100151.84
2023-03-20T22:16:04.750Z,100149.59
2023-03-20T22:21:48.506Z,100143.73
2023-03-20T22:24:39.378Z,100147.00
2023-03-20T22:27:40.122Z,100144.58
2023-03-20T22:33:12.033Z,100143.87
2023-03-20T22:38:55.731Z,100147.65
2023-03-20T22:46:46.059Z,100153.14
2023-03-20T22:49:15.042Z,100155.02
2023-03-20T22:51:55.579Z,100156.73
2023-03-20T22:54:31.343Z,100153.42
2023-03-20T22:56:59.465Z,100153.76
2023-03-20T22:59:27.620Z,100149.77
2023-03-20T23:01:55.903Z,100154.41
2023-03-20T23:04:24.213Z,100155.77
2023-03-20T23:06:52.396Z,100159.38
2023-03-20T23:09:21.083Z,100159.88
2023-03-20T23:11:49.160Z,100159.52
2023-03-20T23:14:21.662Z,100160.02
2023-03-20T23:16:51.101Z,100157.94
2023-03-20T23:19:19.172Z,100159.15
2023-03-20T23:21:47.098Z,100159.62
2023-03-20T23:24:15.451Z,100158.23
2023-03-20T23:26:44.446Z,100159.93
2023-03-20T23:29:12.571Z,100155.42
2023-03-20T23:31:40.686Z,100158.84
2023-03-20T23:34:08.650Z,100153.65
2023-03-20T23:36:37.678Z,100155.38
2023-03-20T23:39:07.977Z,100152.27
2023-03-20T23:42:06.059Z,100152.09
2023-03-20T23:44:25.137Z,100153.11
2023-03-20T23:46:55.117Z,100154.14
2023-03-20T23:49:23.667Z,100155.69
2023-03-20T23:51:51.585Z,100156.20
2023-03-20T23:54:19.715Z,100154.14
2023-03-20T23:56:47.702Z,100152.59
2023-03-20T23:59:21.703Z,100155.19
